createdAt,value
2022-11-29T00:02:31.631Z,101323.13
2022-11-29T00:07:53.486Z,101335.81
2022-11-29T00:13:15.287Z,101327.13
2022-11-29T00:18:37.013Z,101323.13
2022-11-29T00:23:59.226Z,101320.22
2022-11-29T00:29:21.014Z,101329.66
2022-11-29T00:34:42.966Z,101326.53
2022-11-29T00:40:05.782Z,101342.56
2022-11-29T00:45:27.510Z,101332.81
2022-11-29T00:50:49.227Z,101344.16
2022-11-29T00:56:11.056Z,101353.78
2022-11-29T01:01:32.738Z,101344.03
2022-11-29T01:06:54.379Z,101353.44
2022-11-29T01:12:16.010Z,101347.53
2022-11-29T01:17:40.569Z,101360.56
2022-11-29T01:23:02.262Z,101361.03
2022-11-29T01:28:24.027Z,101367.66
2022-11-29T01:33:46.631Z,101375.38
2022-11-29T01:39:08.506Z,101384.78
2022-11-29T01:44:30.079Z,101380.56
2022-11-29T01:49:51.787Z,101392.75
2022-11-29T01:55:14.389Z,101396.00
2022-11-29T02:00:36.528Z,101396.25
2022-11-29T02:05:59.427Z,101399.22
2022-11-29T02:11:50.087Z,101411.41
2022-11-29T02:17:35.694Z,101408.84
2022-11-29T02:23:31.556Z,101417.44
2022-11-29T02:29:11.732Z,101408.50
2022-11-29T02:35:02.481Z,101421.75
2022-11-29T02:40:58.624Z,101420.91
2022-11-29T02:46:32.160Z,101429.69
2022-11-29T02:52:03.160Z,101428.00
2022-11-29T02:57:46.007Z,101435.50
2022-11-29T03:03:21.520Z,101448.75
2022-11-29T03:09:07.585Z,101452.59
2022-11-29T03:14:58.796Z,101458.38
2022-11-29T03:20:46.359Z,101463.31
2022-11-29T03:26:14.657Z,101464.63
2022-11-29T03:31:41.220Z,101479.34
2022-11-29T03:37:11.471Z,101472.34
2022-11-29T03:42:45.183Z,101488.13
2022-11-29T03:48:15.880Z,101503.06
2022-11-29T03:54:00.114Z,101494.63
2022-11-29T03:59:49.035Z,101484.38
2022-11-29T04:05:33.071Z,101487.59
2022-11-29T04:11:11.111Z,101488.69
2022-11-29T04:16:51.251Z,101497.25
2022-11-29T04:22:35.917Z,101500.25
2022-11-29T04:28:15.962Z,101513.25
2022-11-29T04:33:55.681Z,101517.97
2022-11-29T04:39:31.153Z,101510.13
2022-11-29T04:45:18.330Z,101510.13
2022-11-29T04:50:53.567Z,101525.06
2022-11-29T04:56:47.056Z,101526.13
2022-11-29T05:02:27.616Z,101524.44
2022-11-29T05:08:13.351Z,101536.59
2022-11-29T05:14:12.500Z,101549.84
2022-11-29T05:19:54.801Z,101556.47
2022-11-29T05:25:54.196Z,101553.91
2022-11-29T05:31:53.246Z,101577.16
2022-11-29T05:37:32.796Z,101566.31
2022-11-29T05:43:22.212Z,101578.50
2022-11-29T05:48:56.931Z,101580.88
2022-11-29T05:54:47.819Z,101595.56
2022-11-29T06:00:12.790Z,101601.13
2022-11-29T06:05:56.855Z,101610.50
2022-11-29T06:11:38.830Z,101607.53
2022-11-29T06:17:39.173Z,101619.44
2022-11-29T06:23:48.934Z,101626.91
2022-11-29T06:29:13.384Z,101636.06
2022-11-29T06:35:02.588Z,101641.59
2022-11-29T06:40:24.613Z,101654.84
2022-11-29T06:45:57.563Z,101650.16
2022-11-29T06:51:25.030Z,101649.53
2022-11-29T06:56:52.840Z,101659.75
2022-11-29T07:02:28.795Z,101664.72
2022-11-29T07:07:54.126Z,101663.00
2022-11-29T07:13:17.766Z,101674.09
2022-11-29T07:19:00.600Z,101688.78
2022-11-29T07:24:37.357Z,101692.00
2022-11-29T07:30:17.058Z,101714.16
2022-11-29T07:35:47.571Z,101709.94
2022-11-29T07:41:46.569Z,101726.56
2022-11-29T07:47:08.972Z,101725.31
2022-11-29T07:52:30.869Z,101718.09
2022-11-29T07:57:53.243Z,101721.94
2022-11-29T08:03:15.297Z,101721.06
2022-11-29T08:08:42.381Z,101726.84
2022-11-29T08:14:05.970Z,101730.47
2022-11-29T08:19:27.756Z,101735.16
2022-11-29T08:24:49.521Z,101745.63
2022-11-29T08:30:11.360Z,101762.44
2022-11-29T08:35:35.441Z,101758.81
2022-11-29T08:41:02.480Z,101757.78
2022-11-29T08:46:44.106Z,101766.28
2022-11-29T08:52:24.137Z,101773.72
2022-11-29T08:57:46.703Z,101781.19
2022-11-29T09:03:27.083Z,101780.56
2022-11-29T09:08:48.742Z,101783.56
2022-11-29T09:14:15.667Z,101791.41
2022-11-29T09:19:37.313Z,101795.25
2022-11-29T09:24:59.056Z,101803.38
2022-11-29T09:30:23.790Z,101801.44
2022-11-29T09:35:46.030Z,101805.91
2022-11-29T09:41:47.004Z,101811.03
2022-11-29T09:47:09.979Z,101819.13
2022-11-29T09:52:54.925Z,101830.44
2022-11-29T09:58:21.628Z,101832.56
2022-11-29T10:03:47.309Z,101836.22
2022-11-29T10:09:53.329Z,101832.97
2022-11-29T10:15:31.908Z,101825.28
2022-11-29T10:20:58.663Z,101825.13
2022-11-29T10:26:28.180Z,101827.22
2022-11-29T10:31:56.944Z,101828.06
2022-11-29T10:37:21.582Z,101828.06
2022-11-29T10:42:49.751Z,101828.06
2022-11-29T10:48:20.425Z,101832.78
2022-11-29T10:53:42.322Z,101829.38
2022-11-29T10:59:09.181Z,101832.34
2022-11-29T11:04:45.442Z,101827.66
2022-11-29T11:10:28.316Z,101848.13
2022-11-29T11:15:55.693Z,101843.03
2022-11-29T11:21:20.941Z,101844.97
2022-11-29T11:26:45.264Z,101847.72
2022-11-29T11:32:18.839Z,101844.53
2022-11-29T11:37:40.584Z,101852.84
2022-11-29T11:43:03.427Z,101834.50
2022-11-29T11:48:25.609Z,101860.50
2022-11-29T11:53:52.637Z,101858.81
2022-11-29T11:59:21.266Z,101862.22
2022-11-29T12:04:43.405Z,101866.47
2022-11-29T12:10:11.338Z,101879.50
2022-11-29T12:15:38.495Z,101881.41
2022-11-29T12:21:06.144Z,101887.19
2022-11-29T12:32:44.075Z,101897.38
2022-11-29T12:38:08.711Z,101899.53
2022-11-29T12:43:55.033Z,101900.59
2022-11-29T12:50:05.239Z,101911.06
2022-11-29T12:55:47.680Z,101920.44
2022-11-29T13:01:23.000Z,101930.00
2022-11-29T13:07:03.469Z,101925.34
2022-11-29T13:12:42.205Z,101929.19
2022-11-29T13:18:19.920Z,101927.47
2022-11-29T13:24:09.766Z,101938.56
2022-11-29T13:29:32.211Z,101936.22
2022-11-29T13:34:58.995Z,101934.31
2022-11-29T13:40:48.585Z,101936.00
2022-11-29T13:46:19.957Z,101927.91
2022-11-29T13:51:41.692Z,101924.06
2022-11-29T13:57:06.958Z,101931.31
2022-11-29T14:02:30.930Z,101931.31
2022-11-29T14:08:42.170Z,101930.88
2022-11-29T14:14:15.749Z,101927.47
2022-11-29T14:19:37.485Z,101936.84
2022-11-29T14:25:49.177Z,101931.31
2022-11-29T14:31:04.149Z,101940.69
2022-11-29T14:36:42.002Z,101946.88
2022-11-29T14:42:25.409Z,101953.47
2022-11-29T14:47:50.436Z,101957.31
2022-11-29T14:53:34.355Z,101957.31
2022-11-29T14:59:33.575Z,101952.81
2022-11-29T15:04:57.435Z,101964.38
2022-11-29T15:10:26.380Z,101966.03
2022-11-29T15:16:19.464Z,101961.59
2022-11-29T15:22:09.841Z,101972.03
2022-11-29T15:27:34.157Z,101976.94
2022-11-29T15:33:00.010Z,101978.84
2022-11-29T15:38:23.899Z,101975.22
2022-11-29T15:43:49.431Z,101979.06
2022-11-29T15:49:24.760Z,101975.00
2022-11-29T15:54:51.345Z,101989.31
2022-11-29T16:00:24.071Z,101995.25
2022-11-29T16:05:51.276Z,101999.47
2022-11-29T16:11:20.467Z,101994.72
2022-11-29T16:16:45.215Z,101991.72
2022-11-29T16:22:12.769Z,101995.84
2022-11-29T16:27:36.303Z,102003.03
2022-11-29T16:33:00.271Z,102006.38
2022-11-29T16:38:23.703Z,102003.41
2022-11-29T16:43:53.936Z,102004.91
2022-11-29T16:49:36.548Z,101998.31
2022-11-29T16:54:58.441Z,102000.50
2022-11-29T17:00:25.599Z,102011.84
2022-11-29T17:05:47.280Z,102001.63
2022-11-29T17:11:11.619Z,102003.16
2022-11-29T17:16:33.301Z,102009.56
2022-11-29T17:21:55.039Z,102006.63
2022-11-29T17:27:16.824Z,102010.91
2022-11-29T17:32:38.667Z,102019.84
2022-11-29T17:38:00.412Z,102025.34
2022-11-29T17:43:22.111Z,102030.13
2022-11-29T17:48:46.358Z,102037.66
2022-11-29T17:54:08.504Z,102047.59
2022-11-29T17:59:30.343Z,102045.38
2022-11-29T18:04:52.021Z,102058.59
2022-11-29T18:10:13.675Z,102066.31
2022-11-29T18:15:35.427Z,102069.72
2022-11-29T18:20:59.366Z,102064.25
2022-11-29T18:26:23.901Z,102065.97
2022-11-29T18:31:46.344Z,102067.31
2022-11-29T18:37:13.972Z,102065.19
2022-11-29T18:42:38.898Z,102076.06
2022-11-29T18:48:00.634Z,102077.06
2022-11-29T18:53:22.344Z,102071.28
2022-11-29T18:58:46.477Z,102080.09
2022-11-29T19:04:11.354Z,102076.38
2022-11-29T19:09:33.018Z,102077.09
2022-11-29T19:14:55.108Z,102088.59
2022-11-29T19:20:17.157Z,102092.25
2022-11-29T19:25:38.902Z,102086.94
2022-11-29T19:31:00.643Z,102099.66
2022-11-29T19:36:30.381Z,102087.31
2022-11-29T19:41:52.013Z,102101.72
2022-11-29T19:47:13.649Z,102107.09
2022-11-29T19:52:35.327Z,102113.81
2022-11-29T19:57:57.024Z,102109.41
2022-11-29T20:03:18.696Z,102121.16
2022-11-29T20:08:41.568Z,102120.97
2022-11-29T20:14:05.631Z,102125.81
2022-11-29T20:19:27.335Z,102120.41
2022-11-29T20:24:49.083Z,102140.63
2022-11-29T20:30:11.473Z,102136.91
2022-11-29T20:35:33.325Z,102151.06
2022-11-29T20:41:12.653Z,102159.25
2022-11-29T20:46:34.511Z,102166.16
2022-11-29T20:52:03.308Z,102155.53
2022-11-29T20:57:24.966Z,102154.78
2022-11-29T21:02:46.685Z,102154.44
2022-11-29T21:08:08.493Z,102163.81
2022-11-29T21:13:30.413Z,102160.69
2022-11-29T21:18:54.631Z,102170.19
2022-11-29T21:24:41.669Z,102173.22
2022-11-29T21:30:06.437Z,102168.44
2022-11-29T21:35:28.160Z,102165.84
2022-11-29T21:40:49.876Z,102158.13
2022-11-29T21:46:11.603Z,102160.44
2022-11-29T21:51:33.733Z,102158.84
2022-11-29T21:56:56.324Z,102153.41
2022-11-29T22:02:18.079Z,102159.75
2022-11-29T22:07:39.914Z,102162.19
2022-11-29T22:13:01.604Z,102161.03
2022-11-29T22:18:27.122Z,102176.25
2022-11-29T22:23:48.911Z,102167.81
2022-11-29T22:29:14.084Z,102176.59
2022-11-29T22:34:35.744Z,102171.06
2022-11-29T22:39:57.947Z,102167.25
2022-11-29T22:45:19.585Z,102178.16
2022-11-29T22:50:41.242Z,102173.75
2022-11-29T22:56:04.827Z,102178.88
2022-11-29T23:01:29.093Z,102188.75
2022-11-29T23:06:50.772Z,102181.09
2022-11-29T23:12:12.742Z,102182.22
2022-11-29T23:17:34.374Z,102188.44
2022-11-29T23:22:56.033Z,102185.44
2022-11-29T23:28:18.541Z,102196.34
2022-11-29T23:33:40.428Z,102194.25
2022-11-29T23:39:02.370Z,102194.91
2022-11-29T23:44:24.030Z,102199.81
2022-11-29T23:49:45.746Z,102206.91
2022-11-29T23:55:07.855Z,102205.41
